Terminal Aerodrome Forecast
Issued by NWS

Home | Current Version | Previous Version | Text Only | Print | Product List | Glossary On
Versions: 1 2 3 4 5 6 7 8 9 10 11 12 13 14 15 16 17 18 19 20 21 22 23 24 25 26 27 28 29 30 31 32 33 34 35 36 37 38 39 40 41 42 43 44 45 46 47 48 49 50
000
FTUS43 KMKX 280900 AAA
TAFENW
TAF AMD
KENW 280900Z 2809/0106 14009KT 5SM -SHRA VCTS OVC050CB
      TEMPO 2809/2810 3SM -TSRA OVC030CB
     FM281100 16008KT 5SM BR VCSH OVC015
     FM281300 18008KT P6SM OVC010
     FM282100 19011KT 5SM BR VCSH OVC003
     FM010000 20009KT 2SM SHRA BR VCTS OVC003CB
     FM010500 29007KT 3SM SHRA BR OVC003=

USA.gov is the U.S. government's official web portal to all federal, state and local government web resources and services.